createdAt,value
2019-02-02T00:01:06.934Z,65.43
2019-02-02T00:03:37.354Z,61.67
2019-02-02T00:06:06.818Z,61.33
2019-02-02T00:08:35.995Z,61.57
2019-02-02T00:11:08.896Z,61.73
2019-02-02T00:13:38.335Z,60.20
2019-02-02T00:16:08.736Z,59.17
2019-02-02T00:18:40.334Z,61.17
2019-02-02T00:21:10.794Z,60.73
2019-02-02T00:23:40.675Z,63.40
2019-02-02T00:26:10.210Z,59.73
2019-02-02T00:28:40.089Z,59.83
2019-02-02T00:31:12.127Z,58.33
2019-02-02T00:33:41.486Z,59.10
2019-02-02T00:36:11.290Z,60.37
2019-02-02T00:38:40.732Z,58.50
2019-02-02T00:41:10.587Z,56.73
2019-02-02T00:43:39.966Z,56.23
2019-02-02T00:46:09.766Z,55.27
2019-02-02T00:48:38.887Z,54.97
2019-02-02T00:51:08.246Z,53.80
2019-02-02T00:53:37.687Z,54.53
2019-02-02T00:56:07.427Z,53.47
2019-02-02T00:58:40.086Z,52.23
2019-02-02T01:01:09.531Z,50.13
2019-02-02T01:03:38.971Z,52.23
2019-02-02T01:06:08.411Z,50.47
2019-02-02T01:08:37.574Z,53.33
2019-02-02T01:11:07.933Z,51.83
2019-02-02T01:13:37.491Z,48.70
2019-02-02T01:16:07.048Z,47.47
2019-02-02T01:18:36.091Z,46.10
2019-02-02T01:21:07.931Z,47.97
2019-02-02T01:23:37.372Z,47.80
2019-02-02T01:26:07.332Z,46.27
2019-02-02T01:28:36.570Z,48.10
2019-02-02T01:31:06.151Z,47.87
2019-02-02T01:33:37.827Z,46.23
2019-02-02T01:36:07.067Z,46.57
2019-02-02T01:38:36.607Z,46.43
2019-02-02T01:41:05.846Z,47.50
2019-02-02T01:43:35.106Z,47.53
2019-02-02T01:46:04.886Z,45.63
2019-02-02T01:48:34.093Z,43.17
2019-02-02T01:51:03.887Z,44.60
2019-02-02T01:53:33.606Z,40.57
2019-02-02T01:56:03.305Z,38.20
2019-02-02T01:58:32.573Z,36.23
2019-02-02T02:01:01.711Z,37.20
2019-02-02T02:03:31.032Z,36.00
2019-02-02T02:06:00.055Z,37.17
2019-02-02T02:08:29.291Z,35.07
2019-02-02T02:10:58.632Z,34.03
2019-02-02T02:13:28.333Z,32.20
2019-02-02T02:15:57.531Z,32.57
2019-02-02T02:18:27.192Z,30.77
2019-02-02T02:20:56.730Z,30.20
2019-02-02T02:23:25.911Z,30.67
2019-02-02T02:25:55.313Z,29.53
2019-02-02T02:28:28.155Z,29.03
2019-02-02T02:30:56.487Z,28.70
2019-02-02T02:33:25.847Z,28.77
2019-02-02T02:35:55.287Z,28.67
2019-02-02T02:38:24.306Z,27.73
2019-02-02T02:40:54.167Z,27.53
2019-02-02T02:43:23.473Z,27.30
2019-02-02T02:45:53.027Z,27.90
2019-02-02T02:48:22.486Z,27.67
2019-02-02T02:50:54.168Z,27.23
2019-02-02T02:53:23.727Z,26.80
2019-02-02T02:55:53.147Z,25.67
2019-02-02T02:58:22.506Z,26.93
2019-02-02T03:00:52.209Z,26.80
2019-02-02T03:03:21.414Z,25.30
2019-02-02T03:05:51.031Z,25.17
2019-02-02T03:08:20.573Z,23.93
2019-02-02T03:10:50.011Z,23.77
2019-02-02T03:13:19.730Z,23.20
2019-02-02T03:15:49.151Z,21.47
2019-02-02T03:18:18.509Z,21.10
2019-02-02T03:20:49.269Z,20.50
2019-02-02T03:23:18.810Z,19.10
2019-02-02T03:25:48.310Z,18.17
2019-02-02T03:28:18.095Z,18.03
2019-02-02T03:30:47.211Z,17.63
2019-02-02T03:33:16.670Z,16.80
2019-02-02T03:35:48.468Z,16.23
2019-02-02T03:38:18.207Z,15.20
2019-02-02T03:40:47.770Z,14.10
2019-02-02T03:43:16.947Z,13.70
2019-02-02T03:45:46.406Z,12.23
2019-02-02T03:48:16.086Z,12.47
2019-02-02T03:50:45.487Z,12.17
2019-02-02T03:53:34.486Z,10.67
2019-02-02T03:56:03.646Z,11.10
2019-02-02T03:58:33.466Z,10.73
2019-02-02T04:01:02.810Z,10.27
2019-02-02T04:03:33.386Z,9.67
2019-02-02T04:06:02.650Z,9.80
2019-02-02T04:08:31.874Z,10.07
2019-02-02T04:11:01.490Z,10.77
2019-02-02T04:13:30.929Z,10.30
2019-02-02T04:16:01.351Z,10.63
2019-02-02T04:18:31.331Z,11.40
2019-02-02T04:21:00.551Z,9.23
2019-02-02T04:23:31.250Z,9.67
2019-02-02T04:26:01.050Z,9.13
2019-02-02T04:28:30.810Z,9.27
2019-02-02T04:31:07.647Z,8.83
2019-02-02T04:33:36.829Z,8.57
2019-02-02T04:36:06.229Z,8.07
2019-02-02T04:38:35.573Z,8.00
2019-02-02T04:41:04.750Z,8.30
2019-02-02T04:43:43.749Z,8.33
2019-02-02T04:46:13.451Z,9.03
2019-02-02T04:48:42.849Z,8.53
2019-02-02T04:51:12.276Z,8.30
2019-02-02T04:53:41.590Z,9.03
2019-02-02T04:56:11.292Z,9.07
2019-02-02T04:58:41.050Z,9.97
2019-02-02T05:01:10.529Z,11.77
2019-02-02T05:03:39.898Z,9.83
2019-02-02T05:06:09.369Z,10.43
2019-02-02T05:08:38.590Z,10.53
2019-02-02T05:11:08.569Z,11.00
2019-02-02T05:13:47.289Z,11.17
2019-02-02T05:16:16.850Z,10.90
2019-02-02T05:18:46.670Z,11.03
2019-02-02T05:21:16.249Z,10.67
2019-02-02T05:23:45.769Z,8.97
2019-02-02T05:26:15.470Z,8.57
2019-02-02T05:28:46.809Z,8.87
2019-02-02T05:31:16.570Z,8.60
2019-02-02T05:33:45.732Z,8.30
2019-02-02T05:36:14.910Z,8.23
2019-02-02T05:38:44.309Z,7.77
2019-02-02T05:41:13.709Z,7.20
2019-02-02T05:43:42.891Z,7.83
2019-02-02T05:46:12.571Z,6.83
2019-02-02T05:48:41.870Z,6.53
2019-02-02T05:51:11.412Z,6.27
2019-02-02T05:53:40.951Z,7.20
2019-02-02T05:56:10.311Z,6.80
2019-02-02T05:58:40.110Z,7.03
2019-02-02T06:01:10.821Z,7.60
2019-02-02T06:03:40.533Z,7.40
2019-02-02T06:06:09.772Z,7.60
2019-02-02T06:08:38.996Z,7.33
2019-02-02T06:11:08.613Z,6.60
2019-02-02T06:13:42.255Z,6.50
2019-02-02T06:16:11.952Z,5.90
2019-02-02T06:18:41.112Z,7.00
2019-02-02T06:21:10.512Z,7.20
2019-02-02T06:23:40.252Z,6.37
2019-02-02T06:26:09.695Z,6.67
2019-02-02T06:28:39.132Z,6.07
2019-02-02T06:31:09.032Z,5.47
2019-02-02T06:33:38.401Z,5.77
2019-02-02T06:36:07.775Z,5.70
2019-02-02T06:38:37.433Z,6.03
2019-02-02T06:41:06.652Z,5.50
2019-02-02T06:43:42.253Z,5.30
2019-02-02T06:46:12.052Z,5.87
2019-02-02T06:48:41.373Z,5.17
2019-02-02T06:51:10.472Z,4.70
2019-02-02T06:53:39.972Z,4.80
2019-02-02T06:56:09.735Z,4.40
2019-02-02T06:58:39.127Z,4.63
2019-02-02T07:01:09.009Z,5.03
2019-02-02T07:03:38.247Z,4.90
2019-02-02T07:06:07.389Z,4.60
2019-02-02T07:08:36.907Z,5.40
2019-02-02T07:11:06.107Z,4.10
2019-02-02T07:13:36.112Z,4.50
2019-02-02T07:16:05.546Z,4.40
2019-02-02T07:18:34.967Z,4.00
2019-02-02T07:21:04.815Z,3.70
2019-02-02T07:23:33.907Z,4.00
2019-02-02T07:26:03.059Z,3.77
2019-02-02T07:28:32.331Z,4.23
2019-02-02T07:31:02.070Z,7.73
2019-02-02T07:33:31.268Z,9.03
2019-02-02T07:36:00.507Z,7.03
2019-02-02T07:38:29.847Z,6.13
2019-02-02T07:40:59.333Z,6.67
2019-02-02T07:43:28.668Z,6.97
2019-02-02T07:45:58.127Z,6.33
2019-02-02T07:48:27.488Z,6.57
2019-02-02T07:50:56.747Z,6.43
2019-02-02T07:53:26.172Z,5.50
2019-02-02T07:55:55.289Z,5.87
2019-02-02T07:58:24.223Z,5.77
2019-02-02T08:00:53.213Z,5.00
2019-02-02T08:05:54.065Z,4.57
2019-02-02T08:08:23.007Z,4.57
2019-02-02T08:10:55.002Z,5.80
2019-02-02T08:15:58.338Z,6.87
2019-02-02T08:18:27.395Z,7.90
2019-02-02T08:20:56.680Z,7.73
2019-02-02T08:23:28.441Z,10.37
2019-02-02T08:25:57.391Z,9.03
2019-02-02T08:28:26.296Z,8.27
2019-02-02T08:30:55.251Z,7.30
2019-02-02T08:35:53.634Z,6.20
2019-02-02T08:38:22.735Z,5.40
2019-02-02T08:40:51.635Z,5.30
2019-02-02T08:43:39.914Z,4.90
2019-02-02T08:46:10.108Z,5.00
2019-02-02T08:48:39.127Z,4.70
2019-02-02T08:51:11.227Z,5.67
2019-02-02T08:53:40.347Z,6.40
2019-02-02T08:56:09.742Z,5.87
2019-02-02T08:58:45.564Z,6.10
2019-02-02T09:01:14.596Z,5.80
2019-02-02T09:03:43.936Z,5.27
2019-02-02T09:06:13.464Z,5.83
2019-02-02T09:08:42.954Z,4.63
2019-02-02T09:11:12.083Z,5.00
2019-02-02T09:16:14.807Z,5.43
2019-02-02T09:18:47.123Z,4.23
2019-02-02T09:21:18.424Z,5.27
2019-02-02T09:23:47.863Z,5.00
2019-02-02T09:26:19.801Z,5.10
2019-02-02T09:28:49.124Z,4.53
2019-02-02T09:31:18.103Z,4.50
2019-02-02T09:33:47.145Z,6.00
2019-02-02T09:36:17.133Z,5.77
2019-02-02T09:38:46.806Z,6.27
2019-02-02T09:41:15.676Z,4.93
2019-02-02T09:43:44.884Z,5.50
2019-02-02T09:46:15.404Z,5.63
2019-02-02T09:48:44.326Z,5.37
2019-02-02T09:51:13.864Z,5.57
2019-02-02T09:53:42.925Z,5.63
2019-02-02T09:56:14.164Z,4.87
2019-02-02T09:58:43.609Z,5.00
2019-02-02T10:01:14.127Z,5.03
2019-02-02T10:03:43.190Z,4.77
2019-02-02T10:06:12.627Z,6.13
2019-02-02T10:08:42.325Z,5.40
2019-02-02T10:11:12.375Z,6.03
2019-02-02T10:13:41.705Z,4.40
2019-02-02T10:16:10.646Z,5.10
2019-02-02T10:18:39.766Z,4.73
2019-02-02T10:21:09.528Z,4.70
2019-02-02T10:23:38.525Z,4.90
2019-02-02T10:26:07.527Z,4.97
2019-02-02T10:28:36.826Z,5.30
2019-02-02T10:31:05.765Z,5.80
2019-02-02T10:33:35.086Z,5.57
2019-02-02T10:36:04.891Z,4.70
2019-02-02T10:38:34.583Z,5.73
2019-02-02T10:41:04.114Z,6.63
2019-02-02T10:43:32.883Z,5.77
2019-02-02T10:46:10.806Z,5.43
2019-02-02T10:48:40.724Z,6.27
2019-02-02T10:51:10.066Z,6.60
2019-02-02T10:53:39.184Z,6.10
2019-02-02T10:56:08.384Z,7.07
2019-02-02T10:58:37.904Z,8.27
2019-02-02T11:01:07.313Z,7.73
2019-02-02T11:03:36.813Z,7.20
2019-02-02T11:06:06.114Z,6.73
2019-02-02T11:08:35.655Z,5.73
2019-02-02T11:11:05.951Z,5.17
2019-02-02T11:16:11.339Z,5.53
2019-02-02T11:18:43.775Z,4.53
2019-02-02T11:21:13.539Z,8.53
2019-02-02T11:23:43.169Z,8.23
2019-02-02T11:26:13.973Z,7.97
2019-02-02T11:28:43.378Z,9.33
2019-02-02T11:31:12.486Z,7.63
2019-02-02T11:33:44.407Z,8.60
2019-02-02T11:36:15.549Z,8.30
2019-02-02T11:38:44.916Z,8.53
2019-02-02T11:41:13.903Z,7.67
2019-02-02T11:43:43.043Z,9.30
2019-02-02T11:46:12.555Z,8.93
2019-02-02T11:48:41.985Z,7.80
2019-02-02T11:51:11.334Z,9.67
2019-02-02T11:53:40.580Z,10.70
2019-02-02T11:56:11.786Z,10.70
2019-02-02T11:58:41.107Z,10.70
2019-02-02T12:01:10.492Z,9.60
2019-02-02T12:03:40.371Z,9.43
2019-02-02T12:06:09.964Z,9.93
2019-02-02T12:08:39.082Z,11.17
2019-02-02T12:11:08.123Z,10.83
2019-02-02T12:16:15.450Z,10.10
2019-02-02T12:18:45.023Z,10.80
2019-02-02T12:21:14.325Z,8.80
2019-02-02T12:23:43.744Z,7.60
2019-02-02T12:26:13.284Z,7.80
2019-02-02T12:28:42.224Z,6.20
2019-02-02T12:31:11.523Z,5.03
2019-02-02T12:33:40.884Z,5.30
2019-02-02T12:36:10.403Z,6.53
2019-02-02T12:38:39.703Z,6.60
2019-02-02T12:41:08.764Z,7.43
2019-02-02T12:43:38.325Z,7.30
2019-02-02T12:46:07.732Z,7.47
2019-02-02T12:48:37.165Z,8.03
2019-02-02T12:51:06.623Z,8.67
2019-02-02T12:53:36.092Z,9.03
2019-02-02T12:56:07.450Z,9.97
2019-02-02T12:58:36.791Z,8.30
2019-02-02T13:01:06.571Z,8.60
2019-02-02T13:03:35.713Z,9.13
2019-02-02T13:06:05.568Z,8.93
2019-02-02T13:08:35.233Z,7.30
2019-02-02T13:11:04.249Z,7.07
2019-02-02T13:13:33.530Z,7.20
2019-02-02T13:16:02.888Z,6.97
2019-02-02T13:18:32.409Z,6.67
2019-02-02T13:21:02.149Z,6.63
2019-02-02T13:26:05.632Z,6.40
2019-02-02T13:28:33.049Z,5.93
2019-02-02T13:31:02.469Z,5.37
2019-02-02T13:33:35.108Z,5.20
2019-02-02T13:36:05.409Z,5.43
2019-02-02T13:38:34.389Z,5.47
2019-02-02T13:41:04.088Z,4.73
2019-02-02T13:43:33.150Z,4.03
2019-02-02T13:46:02.649Z,3.37
2019-02-02T13:48:32.089Z,2.60
2019-02-02T13:51:02.455Z,2.53
2019-02-02T13:53:31.628Z,2.60
2019-02-02T13:56:01.669Z,2.40
2019-02-02T13:58:31.348Z,2.13
2019-02-02T14:01:01.094Z,1.87
2019-02-02T14:03:31.240Z,1.77
2019-02-02T14:06:06.410Z,2.50
2019-02-02T14:08:35.951Z,1.87
2019-02-02T14:11:05.611Z,1.93
2019-02-02T14:13:35.111Z,1.93
2019-02-02T14:16:04.369Z,1.60
2019-02-02T14:18:33.609Z,1.90
2019-02-02T14:21:09.209Z,2.33
2019-02-02T14:23:38.570Z,2.40
2019-02-02T14:26:08.231Z,3.20
2019-02-02T14:28:37.649Z,2.40
2019-02-02T14:31:07.035Z,2.07
2019-02-02T14:33:36.050Z,2.23
2019-02-02T14:36:05.212Z,2.03
2019-02-02T14:38:34.271Z,2.20
2019-02-02T14:41:07.545Z,1.90
2019-02-02T14:46:09.523Z,1.50
2019-02-02T14:48:38.804Z,1.47
2019-02-02T14:51:08.183Z,1.50
2019-02-02T14:53:37.263Z,1.30
2019-02-02T14:56:06.797Z,1.53
2019-02-02T14:58:35.854Z,1.20
2019-02-02T15:01:05.325Z,1.33
2019-02-02T15:03:34.504Z,1.40
2019-02-02T15:06:03.749Z,1.53
2019-02-02T15:08:32.728Z,1.47
2019-02-02T15:11:02.310Z,1.33
2019-02-02T15:16:07.768Z,1.33
2019-02-02T15:18:36.832Z,1.53
2019-02-02T15:21:06.329Z,1.57
2019-02-02T15:23:36.068Z,1.50
2019-02-02T15:26:05.788Z,1.30
2019-02-02T15:28:34.908Z,1.63
2019-02-02T15:31:14.610Z,1.30
2019-02-02T15:33:44.248Z,1.73
2019-02-02T15:36:13.528Z,1.70
2019-02-02T15:38:42.928Z,1.50
2019-02-02T15:41:14.068Z,1.40
2019-02-02T15:43:42.989Z,1.60
2019-02-02T15:46:12.188Z,1.67
2019-02-02T15:48:42.610Z,1.60
2019-02-02T15:51:12.508Z,1.50
2019-02-02T15:53:41.783Z,1.40
2019-02-02T15:56:10.889Z,1.60
2019-02-02T15:58:40.069Z,1.50
2019-02-02T16:01:09.070Z,1.63
2019-02-02T16:03:49.125Z,1.87
2019-02-02T16:06:09.196Z,1.77
2019-02-02T16:08:38.492Z,1.73
2019-02-02T16:11:08.010Z,1.70
2019-02-02T16:13:37.469Z,2.43
2019-02-02T16:16:06.830Z,7.00
2019-02-02T16:18:38.729Z,23.23
2019-02-02T16:21:07.930Z,28.13
2019-02-02T16:26:12.830Z,11.73
2019-02-02T16:28:42.020Z,11.07
2019-02-02T16:31:11.210Z,23.20
2019-02-02T16:36:15.150Z,12.17
2019-02-02T16:38:44.489Z,8.03
2019-02-02T16:41:14.032Z,9.60
2019-02-02T16:46:20.781Z,11.50
2019-02-02T16:48:49.929Z,9.10
2019-02-02T16:51:19.158Z,11.43
2019-02-02T16:53:48.770Z,10.60
2019-02-02T16:56:18.029Z,8.07
2019-02-02T16:58:47.792Z,5.53
2019-02-02T17:01:17.071Z,4.53
2019-02-02T17:03:46.973Z,3.93
2019-02-02T17:06:16.366Z,3.97
2019-02-02T17:08:45.846Z,4.30
2019-02-02T17:11:15.089Z,4.13
2019-02-02T17:13:44.351Z,4.00
2019-02-02T17:16:14.031Z,4.07
2019-02-02T17:18:43.285Z,3.50
2019-02-02T17:21:12.404Z,3.43
2019-02-02T17:23:41.848Z,3.47
2019-02-02T17:26:12.726Z,3.10
2019-02-02T17:28:41.983Z,3.80
2019-02-02T17:31:11.573Z,3.20
2019-02-02T17:33:41.211Z,4.50
2019-02-02T17:36:10.604Z,5.03
2019-02-02T17:38:40.083Z,4.90
2019-02-02T17:41:09.265Z,8.90
2019-02-02T17:43:38.324Z,4.00
2019-02-02T17:46:08.024Z,3.83
2019-02-02T17:48:37.404Z,4.50
2019-02-02T17:51:06.643Z,4.93
2019-02-02T17:53:35.702Z,4.27
2019-02-02T17:56:05.331Z,4.93
2019-02-02T17:58:39.821Z,5.20
2019-02-02T18:01:05.813Z,5.70
2019-02-02T18:03:35.130Z,4.70
2019-02-02T18:06:04.623Z,4.13
2019-02-02T18:08:33.951Z,3.70
2019-02-02T18:11:07.627Z,3.07
2019-02-02T18:13:37.043Z,3.40
2019-02-02T18:16:06.803Z,3.00
2019-02-02T18:18:35.904Z,2.80
2019-02-02T18:21:05.684Z,3.40
2019-02-02T18:23:34.383Z,4.50
2019-02-02T18:26:03.924Z,4.33
2019-02-02T18:28:33.670Z,5.50
2019-02-02T18:31:05.423Z,4.60
2019-02-02T18:33:34.664Z,5.23
2019-02-02T18:36:03.931Z,4.50
2019-02-02T18:39:07.966Z,3.90
2019-02-02T18:41:37.304Z,3.50
2019-02-02T18:44:06.803Z,3.10
2019-02-02T18:46:35.923Z,3.83
2019-02-02T18:49:05.084Z,3.43
2019-02-02T18:51:34.064Z,4.00
2019-02-02T18:54:02.987Z,4.13
2019-02-02T18:56:32.424Z,4.30
2019-02-02T18:59:01.463Z,4.63
2019-02-02T19:01:30.773Z,4.97
2019-02-02T19:03:59.810Z,4.63
2019-02-02T19:06:28.968Z,4.00
2019-02-02T19:08:58.929Z,3.10
2019-02-02T19:11:28.729Z,3.60
2019-02-02T19:14:10.969Z,3.40
2019-02-02T19:16:40.409Z,3.83
2019-02-02T19:19:09.529Z,3.87
2019-02-02T19:21:38.650Z,4.27
2019-02-02T19:24:09.263Z,4.60
2019-02-02T19:26:38.550Z,4.77
2019-02-02T19:29:08.290Z,4.17
2019-02-02T19:31:37.429Z,5.93
2019-02-02T19:34:06.851Z,5.67
2019-02-02T19:36:36.230Z,5.77
2019-02-02T19:39:07.610Z,5.50
2019-02-02T19:41:36.670Z,5.33
2019-02-02T19:44:06.491Z,5.90
2019-02-02T19:46:35.630Z,6.20
2019-02-02T19:49:05.059Z,5.23
2019-02-02T19:51:34.171Z,5.57
2019-02-02T19:54:03.327Z,5.40
2019-02-02T19:56:32.505Z,5.23
2019-02-02T19:59:01.847Z,5.40
2019-02-02T20:01:31.866Z,5.23
2019-02-02T20:04:01.045Z,5.53
2019-02-02T20:06:30.485Z,5.57
2019-02-02T20:08:59.925Z,6.10
2019-02-02T20:11:29.625Z,5.47
2019-02-02T20:13:58.926Z,5.40
2019-02-02T20:16:28.235Z,6.03
2019-02-02T20:18:57.947Z,5.97
2019-02-02T20:21:27.087Z,6.43
2019-02-02T20:23:57.188Z,7.20
2019-02-02T20:26:27.142Z,6.33
2019-02-02T20:28:56.946Z,6.43
2019-02-02T20:31:26.096Z,5.93
2019-02-02T20:33:55.597Z,5.70
2019-02-02T20:36:25.076Z,5.30
2019-02-02T20:38:54.577Z,5.77
2019-02-02T20:41:23.925Z,5.43
2019-02-02T20:43:53.055Z,5.90
2019-02-02T20:46:22.497Z,5.00
2019-02-02T20:48:53.756Z,5.63
2019-02-02T20:51:23.246Z,5.07
2019-02-02T20:53:52.404Z,6.03
2019-02-02T20:56:21.468Z,8.47
2019-02-02T20:58:52.772Z,7.00
2019-02-02T21:01:21.756Z,5.30
2019-02-02T21:03:51.038Z,4.47
2019-02-02T21:06:20.194Z,4.50
2019-02-02T21:08:49.655Z,4.60
2019-02-02T21:11:19.474Z,3.43
2019-02-02T21:13:48.894Z,4.20
2019-02-02T21:16:18.016Z,4.03
2019-02-02T21:18:47.373Z,2.80
2019-02-02T21:21:17.194Z,3.27
2019-02-02T21:23:46.196Z,3.00
2019-02-02T21:26:16.395Z,3.10
2019-02-02T21:28:50.491Z,3.40
2019-02-02T21:31:44.414Z,3.80
2019-02-02T21:34:14.135Z,3.93
2019-02-02T21:36:43.994Z,4.60
2019-02-02T21:39:12.995Z,4.40
2019-02-02T21:41:42.796Z,4.37
2019-02-02T21:44:11.794Z,5.50
2019-02-02T21:46:41.055Z,4.13
2019-02-02T21:49:10.155Z,3.17
2019-02-02T21:51:39.764Z,3.30
2019-02-02T21:54:08.754Z,3.70
2019-02-02T21:56:37.879Z,4.00
2019-02-02T21:59:07.115Z,4.60
2019-02-02T22:01:37.010Z,3.87
2019-02-02T22:04:07.133Z,3.60
2019-02-02T22:06:36.230Z,3.73
2019-02-02T22:09:07.832Z,3.53
2019-02-02T22:11:37.051Z,3.03
2019-02-02T22:14:07.370Z,3.27
2019-02-02T22:16:36.511Z,2.80
2019-02-02T22:19:06.990Z,3.50
2019-02-02T22:21:36.231Z,2.93
2019-02-02T22:24:05.899Z,3.07
2019-02-02T22:26:35.590Z,3.40
2019-02-02T22:29:05.671Z,3.20
2019-02-02T22:31:34.710Z,3.20
2019-02-02T22:34:04.670Z,3.53
2019-02-02T22:36:33.671Z,3.10
2019-02-02T22:39:04.111Z,3.10
2019-02-02T22:41:33.150Z,3.30
2019-02-02T22:44:02.491Z,3.67
2019-02-02T22:46:31.891Z,4.80
2019-02-02T22:49:00.870Z,4.80
2019-02-02T22:51:30.090Z,5.17
2019-02-02T22:53:59.331Z,5.37
2019-02-02T22:56:28.550Z,4.30
2019-02-02T22:58:57.932Z,4.17
2019-02-02T23:01:29.737Z,5.00
2019-02-02T23:04:07.858Z,4.37
2019-02-02T23:06:55.141Z,4.20
2019-02-02T23:09:39.897Z,3.70
2019-02-02T23:12:27.116Z,4.13
2019-02-02T23:15:11.425Z,3.87
2019-02-02T23:17:42.496Z,3.90
2019-02-02T23:20:11.796Z,4.00
2019-02-02T23:22:40.836Z,3.87
2019-02-02T23:25:16.167Z,3.40
2019-02-02T23:27:46.364Z,4.40
2019-02-02T23:30:17.666Z,4.33
2019-02-02T23:32:46.963Z,4.00
2019-02-02T23:35:16.463Z,3.70
2019-02-02T23:37:45.663Z,4.00
2019-02-02T23:40:15.129Z,3.87
2019-02-02T23:42:44.867Z,4.23
2019-02-02T23:45:16.187Z,4.57
2019-02-02T23:47:45.346Z,4.40
2019-02-02T23:50:14.486Z,3.83
2019-02-02T23:52:43.909Z,3.97
2019-02-02T23:55:14.309Z,4.17
2019-02-02T23:57:43.406Z,3.63
